createdAt,value
2022-08-05T00:01:36.032Z,4.22
2022-08-05T00:04:18.943Z,6.35
2022-08-05T00:06:46.956Z,3.85
2022-08-05T00:09:15.947Z,7.00
2022-08-05T00:11:49.169Z,3.75
2022-08-05T00:14:27.540Z,7.15
2022-08-05T00:16:56.988Z,5.93
2022-08-05T00:19:33.726Z,6.05
2022-08-05T00:22:08.006Z,9.88
2022-08-05T00:24:38.619Z,6.85
2022-08-05T00:27:10.486Z,4.28
2022-08-05T00:29:41.156Z,5.95
2022-08-05T00:32:15.468Z,3.70
2022-08-05T00:35:05.230Z,8.75
2022-08-05T00:37:35.447Z,4.20
2022-08-05T00:40:27.423Z,20.38
2022-08-05T00:42:57.086Z,11.57
2022-08-05T00:45:28.272Z,5.10
2022-08-05T00:48:14.772Z,5.32
2022-08-05T00:50:45.891Z,4.40
2022-08-05T00:54:00.253Z,3.92
2022-08-05T00:56:04.303Z,5.00
2022-08-05T00:58:31.318Z,4.20
2022-08-05T01:00:58.322Z,6.22
2022-08-05T01:03:31.047Z,5.20
2022-08-05T01:06:01.729Z,6.40
2022-08-05T01:08:43.130Z,2.65
2022-08-05T01:11:22.248Z,7.00
2022-08-05T01:14:17.999Z,6.93
2022-08-05T01:17:03.213Z,4.95
2022-08-05T01:20:01.722Z,2.58
2022-08-05T01:22:57.414Z,4.32
2022-08-05T01:25:40.841Z,2.80
2022-08-05T01:28:27.348Z,4.55
2022-08-05T01:31:30.864Z,3.08
2022-08-05T01:34:05.000Z,4.38
2022-08-05T01:36:50.896Z,4.43
2022-08-05T01:39:36.138Z,2.17
2022-08-05T01:42:09.746Z,3.00
2022-08-05T01:44:37.923Z,4.30
2022-08-05T01:47:05.479Z,4.00
2022-08-05T01:50:01.475Z,3.65
2022-08-05T01:52:25.442Z,3.42
2022-08-05T01:54:56.904Z,4.45
2022-08-05T01:58:13.648Z,2.50
2022-08-05T02:00:19.341Z,2.38
2022-08-05T02:02:56.321Z,2.30
2022-08-05T02:05:28.988Z,4.10
2022-08-05T02:08:01.125Z,3.08
2022-08-05T02:10:34.849Z,3.90
2022-08-05T02:13:27.914Z,2.92
2022-08-05T02:16:16.505Z,3.25
2022-08-05T02:18:50.323Z,2.83
2022-08-05T02:21:21.857Z,4.50
2022-08-05T02:23:53.457Z,2.88
2022-08-05T02:26:26.531Z,6.18
2022-08-05T02:28:56.054Z,6.97
2022-08-05T02:31:29.334Z,3.35
2022-08-05T02:34:09.875Z,3.15
2022-08-05T02:36:42.600Z,3.30
2022-08-05T02:39:10.920Z,3.33
2022-08-05T02:41:57.797Z,3.17
2022-08-05T02:44:28.376Z,2.53
2022-08-05T02:47:00.443Z,3.92
2022-08-05T02:49:36.460Z,3.72
2022-08-05T02:52:07.651Z,4.15
2022-08-05T02:54:37.185Z,5.30
2022-08-05T02:58:11.318Z,6.05
2022-08-05T02:59:57.634Z,2.75
2022-08-05T03:02:40.491Z,3.42
2022-08-05T03:05:11.751Z,4.15
2022-08-05T03:08:00.821Z,5.13
2022-08-05T03:10:27.627Z,4.70
2022-08-05T03:12:54.567Z,2.88
2022-08-05T03:15:23.661Z,3.08
2022-08-05T03:17:53.893Z,3.80
2022-08-05T03:20:22.416Z,4.57
2022-08-05T03:22:51.415Z,8.63
2022-08-05T03:25:33.393Z,4.65
2022-08-05T03:28:09.035Z,6.57
2022-08-05T03:30:38.225Z,4.00
2022-08-05T03:33:07.477Z,3.47
2022-08-05T03:35:40.995Z,7.70
2022-08-05T03:38:10.722Z,6.25
2022-08-05T03:40:45.239Z,3.65
2022-08-05T03:43:58.434Z,4.00
2022-08-05T03:46:02.619Z,5.00
2022-08-05T03:48:30.430Z,7.38
2022-08-05T03:52:48.554Z,6.07
2022-08-05T03:55:53.009Z,5.75
2022-08-05T03:57:41.270Z,7.57
2022-08-05T04:00:12.518Z,4.25
2022-08-05T04:02:58.036Z,4.78
2022-08-05T04:05:33.821Z,4.07
2022-08-05T04:08:14.343Z,6.28
2022-08-05T04:11:01.330Z,4.35
2022-08-05T04:13:49.746Z,4.55
2022-08-05T04:16:25.177Z,7.75
2022-08-05T04:19:00.215Z,3.85
2022-08-05T04:22:09.008Z,4.20
2022-08-05T04:24:19.311Z,6.82
2022-08-05T04:26:49.892Z,5.90
2022-08-05T04:29:17.059Z,5.00
2022-08-05T04:31:43.975Z,6.50
2022-08-05T04:34:31.997Z,4.65
2022-08-05T04:37:00.221Z,4.03
2022-08-05T04:39:27.971Z,6.07
2022-08-05T04:41:55.423Z,3.70
2022-08-05T04:44:29.291Z,4.15
2022-08-05T04:47:09.932Z,5.00
2022-08-05T04:50:03.003Z,3.70
2022-08-05T04:52:27.467Z,6.30
2022-08-05T04:54:57.414Z,4.82
2022-08-05T04:57:28.585Z,4.65
2022-08-05T04:59:58.797Z,4.78
2022-08-05T05:02:37.566Z,4.65
2022-08-05T05:05:26.363Z,5.32
2022-08-05T05:08:01.693Z,9.27
2022-08-05T05:10:33.844Z,5.68
2022-08-05T05:13:04.318Z,8.32
2022-08-05T05:15:57.608Z,3.65
2022-08-05T05:18:28.494Z,3.22
2022-08-05T05:21:00.962Z,4.70
2022-08-05T05:23:38.844Z,3.60
2022-08-05T05:26:14.884Z,4.70
2022-08-05T05:28:42.819Z,2.88
2022-08-05T05:31:12.559Z,5.70
2022-08-05T05:33:58.681Z,5.80
2022-08-05T05:36:28.648Z,3.40
2022-08-05T05:38:57.391Z,5.00
2022-08-05T05:41:24.553Z,7.15
2022-08-05T05:43:58.300Z,5.00
2022-08-05T05:46:27.578Z,4.15
2022-08-05T05:48:54.405Z,6.93
2022-08-05T05:51:23.377Z,5.35
2022-08-05T05:53:57.446Z,4.75
2022-08-05T05:56:33.004Z,4.70
2022-08-05T05:59:08.128Z,3.90
2022-08-05T06:01:38.219Z,6.22
2022-08-05T06:04:11.346Z,5.05
2022-08-05T06:06:47.774Z,4.20
2022-08-05T06:09:26.503Z,4.80
2022-08-05T06:12:04.158Z,5.20
2022-08-05T06:14:31.866Z,6.90
2022-08-05T06:17:02.108Z,5.75
2022-08-05T06:19:57.162Z,7.35
2022-08-05T06:22:34.754Z,3.72
2022-08-05T06:25:24.390Z,3.97
2022-08-05T06:28:11.033Z,5.93
2022-08-05T06:30:37.413Z,7.63
2022-08-05T06:33:04.387Z,13.93
2022-08-05T06:36:06.816Z,8.40
2022-08-05T06:38:18.242Z,8.95
2022-08-05T06:41:04.501Z,8.70
2022-08-05T06:43:57.439Z,10.60
2022-08-05T06:46:18.667Z,12.50
2022-08-05T06:48:55.823Z,7.72
2022-08-05T06:51:29.892Z,8.75
2022-08-05T06:54:02.700Z,9.10
2022-08-05T06:56:34.255Z,7.13
2022-08-05T06:59:02.281Z,9.02
2022-08-05T07:01:32.284Z,8.25
2022-08-05T07:04:02.469Z,6.13
2022-08-05T07:06:30.439Z,10.32
2022-08-05T07:08:59.271Z,7.35
2022-08-05T07:11:28.669Z,10.13
2022-08-05T07:14:15.588Z,10.45
2022-08-05T07:18:02.424Z,10.35
2022-08-05T07:20:16.664Z,9.80
2022-08-05T07:22:28.518Z,11.50
2022-08-05T07:25:23.831Z,15.75
2022-08-05T07:27:57.276Z,10.75
2022-08-05T07:30:32.799Z,7.50
2022-08-05T07:33:05.450Z,7.82
2022-08-05T07:36:01.625Z,13.07
2022-08-05T07:38:33.022Z,11.43
2022-08-05T07:42:06.976Z,13.35
2022-08-05T07:43:58.262Z,8.50
2022-08-05T07:46:31.201Z,13.82
2022-08-05T07:49:01.835Z,10.20
2022-08-05T07:51:40.984Z,8.93
2022-08-05T07:54:23.342Z,12.77
2022-08-05T07:57:02.477Z,10.25
2022-08-05T07:59:41.413Z,6.20
2022-08-05T08:02:15.706Z,11.13
2022-08-05T08:04:48.343Z,8.15
2022-08-05T08:07:16.473Z,6.05
2022-08-05T08:09:45.837Z,14.95
2022-08-05T08:12:35.083Z,7.57
2022-08-05T08:15:04.232Z,6.10
2022-08-05T08:17:32.369Z,7.68
2022-08-05T08:20:21.381Z,7.53
2022-08-05T08:22:57.550Z,7.05
2022-08-05T08:25:26.952Z,5.93
2022-08-05T08:28:18.862Z,6.60
2022-08-05T08:30:58.738Z,9.80
2022-08-05T08:33:25.598Z,6.72
2022-08-05T08:36:18.530Z,13.25
2022-08-05T08:38:41.819Z,7.45
2022-08-05T08:41:14.072Z,3.95
2022-08-05T08:45:24.352Z,7.07
2022-08-05T08:46:32.236Z,6.03
2022-08-05T08:49:17.403Z,5.60
2022-08-05T08:52:05.698Z,8.82
2022-08-05T08:54:42.233Z,8.45
2022-08-05T08:57:11.581Z,6.18
2022-08-05T08:59:41.825Z,4.38
2022-08-05T09:02:14.821Z,6.25
2022-08-05T09:04:58.513Z,6.40
2022-08-05T09:07:39.795Z,6.68
2022-08-05T09:10:21.564Z,4.82
2022-08-05T09:12:55.098Z,6.10
2022-08-05T09:15:23.413Z,6.78
2022-08-05T09:17:52.882Z,4.53
2022-08-05T09:20:36.607Z,6.82
2022-08-05T09:23:19.721Z,5.18
2022-08-05T09:26:03.368Z,6.13
2022-08-05T09:28:34.716Z,8.55
2022-08-05T09:31:44.110Z,6.22
2022-08-05T09:34:10.444Z,3.58
2022-08-05T09:36:55.350Z,4.07
2022-08-05T09:39:39.369Z,6.63
2022-08-05T09:42:17.377Z,5.03
2022-08-05T09:44:52.876Z,5.10
2022-08-05T09:47:28.632Z,4.95
2022-08-05T09:50:05.458Z,4.30
2022-08-05T09:52:36.459Z,3.03
2022-08-05T09:55:56.449Z,5.00
2022-08-05T09:58:00.163Z,4.95
2022-08-05T10:00:30.441Z,3.38
2022-08-05T10:02:59.021Z,4.10
2022-08-05T10:05:28.464Z,8.45
2022-08-05T10:08:35.972Z,5.50
2022-08-05T10:10:53.891Z,5.63
2022-08-05T10:13:45.853Z,2.95
2022-08-05T10:16:30.523Z,2.25
2022-08-05T10:18:59.785Z,2.63
2022-08-05T10:21:27.859Z,4.78
2022-08-05T10:24:07.540Z,4.47
2022-08-05T10:26:37.641Z,1.90
2022-08-05T10:29:23.328Z,3.83
2022-08-05T10:32:52.386Z,2.25
2022-08-05T10:34:40.710Z,2.47
2022-08-05T10:37:08.424Z,2.03
2022-08-05T10:40:03.749Z,4.32
2022-08-05T10:42:34.200Z,5.13
2022-08-05T10:45:09.596Z,4.97
2022-08-05T10:48:30.084Z,1.80
2022-08-05T10:51:22.062Z,1.52
2022-08-05T10:54:01.980Z,4.07
2022-08-05T10:56:45.511Z,2.40
2022-08-05T11:00:01.819Z,3.78
2022-08-05T11:02:14.124Z,2.30
2022-08-05T11:04:55.782Z,3.92
2022-08-05T11:07:32.755Z,3.85
2022-08-05T11:10:22.806Z,2.58
2022-08-05T11:12:56.201Z,1.15
2022-08-05T11:16:01.279Z,3.72
2022-08-05T11:18:27.286Z,1.92
2022-08-05T11:20:57.369Z,1.70
2022-08-05T11:24:05.436Z,2.38
2022-08-05T11:26:32.577Z,2.83
2022-08-05T11:29:11.514Z,1.88
2022-08-05T11:31:57.500Z,2.63
2022-08-05T11:34:51.826Z,2.33
2022-08-05T11:38:29.105Z,3.88
2022-08-05T11:41:12.860Z,1.77
2022-08-05T11:44:05.192Z,1.88
2022-08-05T11:46:35.351Z,2.00
2022-08-05T11:49:04.454Z,2.83
2022-08-05T11:51:44.596Z,2.05
2022-08-05T11:54:33.971Z,2.13
2022-08-05T11:57:08.178Z,1.20
2022-08-05T11:59:51.187Z,1.95
2022-08-05T12:02:24.475Z,3.28
2022-08-05T12:04:59.330Z,1.88
2022-08-05T12:08:07.430Z,1.08
2022-08-05T12:10:22.927Z,1.23
2022-08-05T12:12:59.339Z,6.28
2022-08-05T12:15:38.420Z,2.13
2022-08-05T12:18:10.550Z,2.95
2022-08-05T12:20:38.830Z,2.13
2022-08-05T12:23:12.341Z,2.55
2022-08-05T12:25:56.715Z,2.47
2022-08-05T12:28:38.177Z,3.13
2022-08-05T12:31:05.698Z,1.50
2022-08-05T12:33:36.467Z,2.05
2022-08-05T12:36:08.639Z,0.73
2022-08-05T12:38:40.246Z,0.80
2022-08-05T12:41:16.133Z,1.13
2022-08-05T12:43:57.982Z,3.42
2022-08-05T12:46:31.435Z,2.50
2022-08-05T12:49:00.975Z,2.53
2022-08-05T12:52:13.675Z,1.85
2022-08-05T12:54:32.785Z,2.05
2022-08-05T12:57:02.574Z,1.30
2022-08-05T13:00:08.265Z,0.93
2022-08-05T13:02:27.451Z,2.63
2022-08-05T13:04:57.565Z,1.20
2022-08-05T13:07:57.638Z,1.23
2022-08-05T13:10:20.290Z,1.27
2022-08-05T13:12:51.333Z,3.55
2022-08-05T13:15:36.024Z,2.17
2022-08-05T13:18:19.597Z,0.70
2022-08-05T13:20:50.075Z,2.28
2022-08-05T13:23:22.235Z,2.60
2022-08-05T13:25:59.539Z,1.48
2022-08-05T13:28:28.810Z,0.68
2022-08-05T13:30:55.814Z,1.33
2022-08-05T13:34:24.055Z,1.95
2022-08-05T13:36:14.361Z,0.80
2022-08-05T13:38:42.710Z,0.80
2022-08-05T13:41:11.491Z,1.50
2022-08-05T13:43:44.271Z,3.08
2022-08-05T13:46:13.220Z,2.30
2022-08-05T13:48:57.498Z,2.10
2022-08-05T13:51:40.020Z,1.42
2022-08-05T13:54:12.549Z,2.80
2022-08-05T13:56:45.457Z,2.88
2022-08-05T13:59:24.603Z,1.17
2022-08-05T14:01:56.496Z,0.82
2022-08-05T14:04:49.996Z,1.33
2022-08-05T14:08:00.907Z,1.40
2022-08-05T14:10:30.794Z,0.70
2022-08-05T14:12:58.820Z,2.85
2022-08-05T14:16:07.118Z,1.23
2022-08-05T14:18:18.159Z,2.60
2022-08-05T14:20:54.781Z,1.02
2022-08-05T14:23:25.068Z,1.90
2022-08-05T14:25:58.795Z,1.95
2022-08-05T14:28:28.700Z,1.85
2022-08-05T14:31:00.511Z,1.33
2022-08-05T14:33:56.610Z,1.35
2022-08-05T14:36:14.890Z,1.42
2022-08-05T14:38:42.045Z,1.10
2022-08-05T14:41:08.910Z,1.08
2022-08-05T14:43:59.372Z,1.05
2022-08-05T14:46:28.284Z,0.70
2022-08-05T14:48:58.540Z,0.77
2022-08-05T14:51:30.750Z,1.58
2022-08-05T14:54:26.435Z,3.28
2022-08-05T14:56:46.954Z,1.60
2022-08-05T14:59:15.267Z,2.38
2022-08-05T15:01:48.238Z,1.90
2022-08-05T15:04:17.503Z,1.77
2022-08-05T15:06:49.228Z,1.33
2022-08-05T15:09:50.569Z,1.30
2022-08-05T15:12:09.012Z,1.55
2022-08-05T15:14:48.387Z,1.60
2022-08-05T15:17:46.123Z,1.23
2022-08-05T15:20:19.023Z,2.70
2022-08-05T15:22:52.257Z,1.33
2022-08-05T15:25:41.157Z,1.10
2022-08-05T15:28:13.181Z,1.02
2022-08-05T15:30:43.465Z,0.80
2022-08-05T15:33:10.696Z,2.17
2022-08-05T15:35:45.256Z,2.38
2022-08-05T15:38:34.388Z,1.85
2022-08-05T15:41:21.112Z,1.48
2022-08-05T15:43:47.523Z,7.47
2022-08-05T15:46:14.601Z,1.58
2022-08-05T15:48:58.897Z,3.00
2022-08-05T15:52:09.722Z,2.13
2022-08-05T15:54:17.073Z,3.45
2022-08-05T15:56:43.987Z,1.05
2022-08-05T15:59:20.243Z,3.78
2022-08-05T16:01:52.815Z,5.53
2022-08-05T16:04:25.673Z,0.65
2022-08-05T16:06:56.254Z,4.85
2022-08-05T16:09:24.734Z,3.22
2022-08-05T16:11:53.174Z,2.85
2022-08-05T16:14:22.415Z,3.08
2022-08-05T16:16:49.972Z,4.63
2022-08-05T16:19:18.860Z,2.97
2022-08-05T16:21:58.928Z,1.80
2022-08-05T16:24:41.626Z,4.45
2022-08-05T16:27:16.234Z,2.33
2022-08-05T16:29:47.473Z,4.45
2022-08-05T16:32:23.382Z,1.77
2022-08-05T16:34:57.098Z,1.20
2022-08-05T16:38:15.709Z,5.05
2022-08-05T16:40:25.080Z,1.90
2022-08-05T16:42:56.254Z,1.98
2022-08-05T16:46:03.673Z,3.45
2022-08-05T16:48:10.501Z,1.58
2022-08-05T16:50:37.535Z,1.10
2022-08-05T16:53:12.673Z,1.30
2022-08-05T16:55:50.582Z,2.05
2022-08-05T16:58:19.639Z,1.00
2022-08-05T17:00:48.145Z,1.77
2022-08-05T17:03:19.826Z,2.00
2022-08-05T17:05:53.593Z,1.90
2022-08-05T17:08:35.806Z,1.83
2022-08-05T17:11:12.520Z,2.80
2022-08-05T17:13:43.950Z,1.45
2022-08-05T17:16:37.103Z,1.77
2022-08-05T17:18:57.913Z,1.60
2022-08-05T17:21:24.805Z,1.38
2022-08-05T17:24:05.142Z,5.28
2022-08-05T17:26:36.219Z,7.93
2022-08-05T17:29:09.855Z,2.08
2022-08-05T17:31:57.412Z,2.03
2022-08-05T17:34:30.145Z,3.78
2022-08-05T17:37:00.092Z,1.38
2022-08-05T17:39:34.193Z,2.30
2022-08-05T17:42:17.825Z,3.47
2022-08-05T17:44:50.416Z,1.52
2022-08-05T17:47:22.923Z,4.38
2022-08-05T17:49:59.875Z,2.10
2022-08-05T17:52:32.618Z,2.75
2022-08-05T17:55:00.536Z,3.85
2022-08-05T17:57:28.069Z,2.05
2022-08-05T18:00:05.360Z,3.63
2022-08-05T18:02:34.215Z,5.57
2022-08-05T18:05:06.364Z,4.30
2022-08-05T18:07:41.495Z,2.30
2022-08-05T18:10:11.290Z,5.90
2022-08-05T18:12:38.923Z,5.35
2022-08-05T18:15:06.815Z,2.50
2022-08-05T18:17:59.068Z,4.82
2022-08-05T18:20:29.415Z,2.47
2022-08-05T18:23:11.282Z,3.35
2022-08-05T18:25:42.766Z,5.88
2022-08-05T18:28:16.522Z,7.22
2022-08-05T18:30:45.446Z,4.22
2022-08-05T18:33:17.710Z,3.55
2022-08-05T18:36:04.298Z,2.53
2022-08-05T18:38:35.988Z,4.15
2022-08-05T18:41:58.404Z,4.95
2022-08-05T18:43:51.089Z,4.18
2022-08-05T18:46:19.705Z,5.65
2022-08-05T18:48:52.009Z,3.70
2022-08-05T18:52:04.883Z,3.35
2022-08-05T18:54:31.311Z,5.65
2022-08-05T18:57:02.075Z,2.33
2022-08-05T18:59:43.089Z,5.25
2022-08-05T19:02:27.917Z,3.35
2022-08-05T19:05:02.884Z,3.40
2022-08-05T19:07:47.786Z,3.47
2022-08-05T19:10:17.422Z,5.28
2022-08-05T19:12:46.175Z,5.38
2022-08-05T19:15:57.844Z,5.88
2022-08-05T19:18:09.559Z,3.85
2022-08-05T19:20:41.526Z,3.15
2022-08-05T19:24:03.558Z,1.60
2022-08-05T19:26:04.086Z,5.60
2022-08-05T19:28:32.864Z,3.47
2022-08-05T19:31:01.259Z,5.25
2022-08-05T19:33:35.567Z,2.90
2022-08-05T19:36:07.161Z,5.35
2022-08-05T19:38:36.402Z,4.30
2022-08-05T19:41:06.694Z,5.45
2022-08-05T19:44:05.888Z,3.10
2022-08-05T19:46:29.539Z,3.50
2022-08-05T19:49:07.876Z,3.83
2022-08-05T19:52:04.525Z,8.00
2022-08-05T19:54:31.074Z,5.07
2022-08-05T19:57:08.705Z,3.60
2022-08-05T20:00:00.265Z,4.97
2022-08-05T20:02:26.989Z,5.10
2022-08-05T20:04:58.438Z,3.97
2022-08-05T20:07:47.386Z,4.85
2022-08-05T20:10:14.659Z,3.35
2022-08-05T20:12:48.357Z,5.65
2022-08-05T20:15:48.288Z,3.78
2022-08-05T20:18:10.470Z,1.45
2022-08-05T20:20:56.728Z,2.42
2022-08-05T20:23:39.987Z,2.55
2022-08-05T20:26:15.333Z,4.38
2022-08-05T20:28:44.825Z,1.80
2022-08-05T20:31:11.994Z,1.95
2022-08-05T20:33:42.429Z,2.08
2022-08-05T20:36:10.083Z,2.03
2022-08-05T20:38:40.907Z,2.10
2022-08-05T20:41:24.235Z,3.80
2022-08-05T20:43:59.774Z,2.20
2022-08-05T20:46:28.605Z,3.03
2022-08-05T20:48:55.537Z,2.05
2022-08-05T20:51:22.626Z,1.15
2022-08-05T20:53:56.380Z,2.28
2022-08-05T20:56:31.873Z,2.88
2022-08-05T20:59:11.251Z,2.75
2022-08-05T21:01:47.059Z,2.20
2022-08-05T21:04:14.194Z,6.82
2022-08-05T21:06:45.385Z,3.65
2022-08-05T21:09:15.048Z,3.10
2022-08-05T21:12:10.833Z,2.25
2022-08-05T21:14:35.205Z,3.05
2022-08-05T21:17:05.507Z,2.35
2022-08-05T21:19:47.400Z,4.15
2022-08-05T21:22:18.543Z,2.70
2022-08-05T21:24:51.866Z,2.22
2022-08-05T21:27:25.431Z,3.05
2022-08-05T21:29:57.488Z,1.83
2022-08-05T21:32:26.935Z,1.42
2022-08-05T21:35:18.126Z,3.38
2022-08-05T21:37:47.004Z,1.20
2022-08-05T21:40:19.976Z,1.13
2022-08-05T21:42:47.416Z,2.85
2022-08-05T21:45:24.864Z,3.08
2022-08-05T21:48:06.431Z,4.13
2022-08-05T21:50:34.991Z,2.10
2022-08-05T21:53:16.718Z,3.33
2022-08-05T21:56:06.191Z,1.45
2022-08-05T21:58:32.570Z,2.85
2022-08-05T22:01:00.400Z,2.30
2022-08-05T22:03:52.185Z,1.48
2022-08-05T22:06:16.271Z,4.13
2022-08-05T22:08:52.024Z,6.22
2022-08-05T22:11:35.266Z,3.78
2022-08-05T22:14:34.553Z,3.75
2022-08-05T22:16:57.915Z,1.67
2022-08-05T22:19:57.476Z,4.28
2022-08-05T22:22:15.560Z,3.38
2022-08-05T22:25:01.638Z,3.15
2022-08-05T22:28:09.000Z,2.60
2022-08-05T22:30:32.269Z,1.50
2022-08-05T22:33:02.575Z,2.30
2022-08-05T22:35:38.624Z,1.95
2022-08-05T22:38:15.273Z,1.42
2022-08-05T22:40:42.209Z,4.55
2022-08-05T22:43:37.504Z,3.13
2022-08-05T22:46:12.240Z,4.57
2022-08-05T22:48:41.790Z,6.93
2022-08-05T22:51:16.077Z,3.60
2022-08-05T22:53:51.037Z,3.35
2022-08-05T22:56:30.558Z,2.35
2022-08-05T22:59:03.250Z,4.60
2022-08-05T23:02:05.263Z,4.55
2022-08-05T23:04:35.402Z,4.00
2022-08-05T23:07:02.914Z,3.45
2022-08-05T23:09:58.400Z,4.40
2022-08-05T23:12:18.072Z,2.75
2022-08-05T23:14:45.262Z,2.03
2022-08-05T23:17:34.568Z,3.22
2022-08-05T23:20:17.637Z,2.63
2022-08-05T23:22:48.319Z,2.05
2022-08-05T23:25:52.004Z,4.32
2022-08-05T23:28:06.967Z,1.35
2022-08-05T23:30:40.017Z,2.85
2022-08-05T23:33:16.270Z,2.53
2022-08-05T23:35:50.444Z,2.95
2022-08-05T23:38:18.083Z,1.30
2022-08-05T23:40:49.410Z,1.58
2022-08-05T23:43:25.335Z,3.17
2022-08-05T23:46:20.130Z,2.65
2022-08-05T23:49:00.389Z,1.50
2022-08-05T23:51:54.218Z,1.92
2022-08-05T23:54:26.331Z,3.63
2022-08-05T23:57:04.201Z,4.22
2022-08-05T23:59:59.593Z,3.67
